Hlavní strana
METAR-TAF:

METAR-TAF

Letiště :

L. M. Clayton Airport

Wolf Point, Montana, Spojené státy americké

zeměpisná šířka: 48-05-40N, zeměpisná délka: 105-34-38W, výška: 605 m

Aktuální stav počasí

Zpráva byla vytvořena před 20 minutami, v 18:32 UTC
Východoseverovýchodní vítr 12 kt
Teplota -14°C
Vlhkost vzduchu 78%
Tlak 1024 hPa
Viditelnost: 14.5 km
Zataženo ve výšce 2500 ft

METAR: KOLF 181832Z AUTO 07012KT 9SM OVC025 M14/M17 A3025 RMK AO2 SNE25 P0000 T11391172 TSNO

Čas: 11:52 (18:52 UTC)

Předpověď počasí

Zpráva byla vytvořena před 1 hodinou a 32 minutami, v 17:20 UTC
Předpověď platná od 18 v 18 UTC do 19 v 18 UTC
Východní vítr 9 kt
Viditelnost: 10 km
Zataženo ve výšce 3500 ft
přeháňky v blízkosti
Od 19 v 0100 UTC
vítr z různých směrů 4 kt
Viditelnost: 10 km
Oblačno až skoro zataženo ve výšce 3500 ft

TAF: KOLF 181720Z 1818/1918 09009KT P6SM VCSH OVC035 FM190100 VRB04KT P6SM BKN035

Stav a předpovědi počasí z více než 4 000 letišť (zprávy METAR a TAF).

Červené a žluté tečky na mapě představují dostupné meteorologické stanice.

Když kurzor umístíte na tečku, zobrazí se název stanice.

Pak kliknutím zobrazíte stav a předpověď počasí.

Chcete-li změnit mapu, kliknutím na zelené tlačítko se znaménkem +mapu přiblížíte, kliknutím na zelené tlačítko se znaménkem – mapu oddálíte a kliknutím na zelené šipky přejdete na sousední mapy.


METAR-TAF: